METAR AND TAF INFORMATION
METAR FOR EFKK
ADDS - METARS form results

(0223 UTC 01 June 2020)
Data provider http://aviationweather.gov/metar/data/
 
METAR text: EFKK 010220Z AUTO 17002KT CAVOK 09/05 Q1027
Conditions at: EFKK (KRUUNUPYY , FI) observed 0220 UTC 01 June 2020
Temperature: 9.0°C (48°F)
Dewpoint: 5.0°C (41°F) [RH = 76%]
Pressure (altimeter): 30.32 inches Hg (1027.0 mb)
Winds: from the S (170 degrees) at 2 MPH (2 knots; 1.0 m/s)
Visibility: 6 or more miles (10+ km)
Ceiling: ceiling and visibility are OK
Clouds: unknown
Weather: no significant weather observed at this time

METAR text: EFKK 010150Z AUTO 14002KT CAVOK 08/05 Q1028
Conditions at: EFKK (KRUUNUPYY , FI) observed 0150 UTC 01 June 2020
Temperature: 8.0°C (46°F)
Dewpoint: 5.0°C (41°F) [RH = 81%]
Pressure (altimeter): 30.35 inches Hg (1028.0 mb)
Winds: from the SE (140 degrees) at 2 MPH (2 knots; 1.0 m/s)
Visibility: 6 or more miles (10+ km)
Ceiling: ceiling and visibility are OK
Clouds: unknown
Weather: no significant weather observed at this time

 AIRPORT MAP

 RUNWAY INFORMATION
Runway 01 Runway length 8202 ft Runway width 197 ft
Runway elevation 78 ft Runway displaced threshold 0 ft Runway heading 11
Runway 19 Runway length 8202 ft Runway width 197 ft
Runway elevation 82 ft Runway displaced threshold 0 ft Runway heading 191
Runway 11 Runway length 2297 ft Runway width 66 ft
Runway elevation 0 ft Runway displaced threshold 0 ft Runway heading 112
Runway 29 Runway length 2297 ft Runway width 66 ft
Runway elevation 0 ft Runway displaced threshold 0 ft Runway heading 292

 AIRPORT FREQUENCIES
Type ATIS Name ATIS Frequency 125.025 MHZ
Type TWR Name TWR Frequency 120.1 MHZ

 AIRPORT NEAR NAVIGATION AIDS
Type NDB Name Esse Frequency 398 KHZ
Type NDB Name Kruunu Frequency 388 KHZ



Powered by Virtual Airlines Manager [v2.6.2]